Time;durP1;ratioP1;P1;durP2;ratioP2;P2;SDS_P1;SDS_P2;PMS_P1;PMS_P2;Temp;Humidity;BMP_temperature;BMP_pressure;BME280_temperature;BME280_humidity;BME280_pressure;Samples;Min_cycle;Max_cycle;Signal;HPM_P1;HPM_P2
2022/07/04 00:01:11;;;;;;;2.78;0.85;;;11.80;80.80;;;;;;5092753;28;20047;-72
2022/07/04 00:03:39;;;;;;;2.22;0.73;;;11.80;81.10;;;;;;5071057;28;22004;-72
2022/07/04 00:06:07;;;;;;;1.35;0.82;;;11.80;81.10;;;;;;5102472;28;20058;-72
2022/07/04 00:08:34;;;;;;;3.05;1.10;;;11.90;81.10;;;;;;5099084;28;20048;-72
2022/07/04 00:11:02;;;;;;;2.22;0.80;;;11.90;81.10;;;;;;5094282;28;20048;-72
2022/07/04 00:13:30;;;;;;;1.70;0.60;;;12.00;81.00;;;;;;5090595;28;20056;-73
2022/07/04 00:15:57;;;;;;;1.65;0.70;;;12.00;81.00;;;;;;5084595;28;20048;-73
2022/07/04 00:18:25;;;;;;;2.70;0.80;;;12.00;81.00;;;;;;5085884;28;20052;-73
2022/07/04 00:20:53;;;;;;;6.13;1.00;;;12.00;81.10;;;;;;5102457;28;20036;-71
2022/07/04 00:23:21;;;;;;;5.10;1.10;;;12.00;81.00;;;;;;5107218;28;21835;-71
2022/07/04 00:25:49;;;;;;;2.85;0.95;;;12.10;81.10;;;;;;5082462;28;20043;-71
2022/07/04 00:28:16;;;;;;;1.90;0.90;;;12.10;81.00;;;;;;5089689;28;20044;-71
2022/07/04 00:30:44;;;;;;;3.05;0.80;;;12.10;81.10;;;;;;5087915;28;20047;-71
2022/07/04 00:33:13;;;;;;;1.05;0.80;;;12.10;81.20;;;;;;5093502;28;20047;-72
2022/07/04 00:35:41;;;;;;;3.45;0.90;;;12.20;81.30;;;;;;5093942;28;20044;-72
2022/07/04 00:38:08;;;;;;;1.80;0.80;;;12.20;81.30;;;;;;5092810;28;20036;-72
2022/07/04 00:40:38;;;;;;;5.65;1.20;;;12.20;81.30;;;;;;5084885;28;20040;-72
2022/07/04 00:43:06;;;;;;;3.67;1.27;;;12.30;81.30;;;;;;5109792;28;20401;-73
2022/07/04 00:45:33;;;;;;;0.95;0.80;;;12.30;81.30;;;;;;5108652;28;20051;-72
2022/07/04 00:48:01;;;;;;;5.15;1.10;;;12.30;81.50;;;;;;5101870;28;20051;-72
2022/07/04 00:50:29;;;;;;;3.33;0.80;;;12.30;81.60;;;;;;5107957;28;20392;-72
2022/07/04 00:52:57;;;;;;;6.25;1.20;;;12.30;81.60;;;;;;5096707;28;20052;-72
2022/07/04 00:55:24;;;;;;;5.03;0.90;;;12.30;81.60;;;;;;5098692;28;20043;-72
2022/07/04 00:57:52;;;;;;;4.00;1.00;;;12.30;81.70;;;;;;5087451;28;20044;-72
2022/07/04 01:00:19;;;;;;;4.68;0.90;;;12.30;81.70;;;;;;5106486;28;20393;-72
2022/07/04 01:02:47;;;;;;;1.13;0.70;;;12.30;81.60;;;;;;5080554;28;20413;-72
2022/07/04 01:05:15;;;;;;;2.95;0.80;;;12.30;81.60;;;;;;5078527;28;20040;-72
2022/07/04 01:07:43;;;;;;;3.53;1.17;;;12.30;81.60;;;;;;5106752;28;20389;-72
2022/07/04 01:10:11;;;;;;;4.03;1.00;;;12.30;81.60;;;;;;5093346;28;20055;-72
2022/07/04 01:12:39;;;;;;;3.13;0.70;;;12.30;81.60;;;;;;5095072;28;20051;-72
2022/07/04 01:15:07;;;;;;;3.13;0.88;;;12.40;81.60;;;;;;5076407;28;20052;-72
2022/07/04 01:17:36;;;;;;;2.95;0.75;;;12.50;81.50;;;;;;5088431;28;20052;-72
2022/07/04 01:20:04;;;;;;;1.20;0.50;;;12.50;81.60;;;;;;5092728;28;20055;-72
2022/07/04 01:22:32;;;;;;;6.43;1.30;;;12.50;81.50;;;;;;5069604;28;20044;-72
2022/07/04 01:25:00;;;;;;;1.35;0.80;;;12.60;81.40;;;;;;5099638;28;20493;-72
2022/07/04 01:27:27;;;;;;;4.22;0.85;;;12.60;81.40;;;;;;5088783;28;20488;-72
2022/07/04 01:29:55;;;;;;;1.17;0.43;;;12.60;81.30;;;;;;5087443;28;20043;-72
2022/07/04 01:32:22;;;;;;;3.38;0.90;;;12.60;81.40;;;;;;5098902;28;20051;-72
2022/07/04 01:34:50;;;;;;;3.78;0.70;;;12.70;81.30;;;;;;5103104;28;20047;-72
2022/07/04 01:37:18;;;;;;;1.70;0.70;;;12.70;81.40;;;;;;5066752;28;20488;-72
2022/07/04 01:39:46;;;;;;;6.18;0.90;;;12.70;81.30;;;;;;5087644;28;20043;-72
2022/07/04 01:42:14;;;;;;;2.85;0.60;;;12.70;81.30;;;;;;5087250;28;20048;-72
2022/07/04 01:44:42;;;;;;;1.88;0.80;;;12.70;81.30;;;;;;5089386;28;20062;-72
2022/07/04 01:47:10;;;;;;;2.95;0.98;;;12.60;81.30;;;;;;5106479;28;20307;-72
2022/07/04 01:49:38;;;;;;;2.47;0.95;;;12.70;81.40;;;;;;5070375;28;20036;-72
2022/07/04 01:52:06;;;;;;;3.53;0.77;;;12.60;81.40;;;;;;5102004;28;20079;-72
2022/07/04 01:54:33;;;;;;;3.85;0.95;;;12.60;81.40;;;;;;5098192;28;20063;-72
2022/07/04 01:57:01;;;;;;;3.63;1.00;;;12.50;81.50;;;;;;5092672;28;20051;-72
2022/07/04 02:02:14;;;;;;;5.45;1.10;;;12.30;81.80;;;;;;5091066;28;20659;-72
2022/07/04 02:04:42;;;;;;;1.80;0.90;;;12.20;82.10;;;;;;5084781;28;20053;-72
2022/07/04 02:07:09;;;;;;;3.72;1.15;;;12.10;82.40;;;;;;5108275;28;20051;-72
2022/07/04 02:09:37;;;;;;;2.22;1.00;;;12.00;82.50;;;;;;5101355;28;20045;-73
2022/07/04 02:14:51;;;;;;;3.90;1.10;;;11.90;82.90;;;;;;5099171;28;20532;-72
2022/07/04 02:17:19;;;;;;;5.65;0.80;;;11.80;83.00;;;;;;5100683;28;20047;-72
2022/07/04 02:19:47;;;;;;;4.97;1.10;;;11.90;83.10;;;;;;5086318;28;20091;-72
2022/07/04 02:22:15;;;;;;;5.25;1.00;;;11.90;83.30;;;;;;5100661;28;20513;-72
2022/07/04 02:24:43;;;;;;;3.85;0.80;;;11.90;83.40;;;;;;5086973;28;20047;-72
2022/07/04 02:27:10;;;;;;;5.00;1.15;;;11.90;83.30;;;;;;5108420;28;20048;-73
2022/07/04 02:29:39;;;;;;;3.50;1.15;;;12.00;83.30;;;;;;5091763;28;20047;-72
2022/07/04 02:32:06;;;;;;;3.75;1.20;;;11.90;83.50;;;;;;5098944;28;20055;-72
2022/07/04 02:34:34;;;;;;;6.22;1.20;;;11.90;83.60;;;;;;5086623;28;20043;-72
2022/07/04 02:37:02;;;;;;;4.55;1.30;;;11.80;83.70;;;;;;5094473;28;20051;-72
2022/07/04 02:39:29;;;;;;;8.02;1.42;;;11.90;83.80;;;;;;5100153;28;20051;-71
2022/07/04 02:41:57;;;;;;;3.45;1.20;;;11.80;83.80;;;;;;5101102;28;20047;-72
2022/07/04 02:44:25;;;;;;;8.02;1.23;;;11.80;83.90;;;;;;5099291;28;20153;-73
2022/07/04 02:46:53;;;;;;;4.85;1.05;;;11.80;83.90;;;;;;5108769;28;20044;-72
2022/07/04 02:49:20;;;;;;;1.73;0.82;;;11.80;83.90;;;;;;5096364;28;20394;-72
2022/07/04 02:51:48;;;;;;;4.10;1.00;;;11.90;83.90;;;;;;5109554;28;20048;-73
2022/07/04 02:54:16;;;;;;;6.68;1.38;;;11.90;83.80;;;;;;5109422;28;20047;-73
2022/07/04 02:56:43;;;;;;;3.47;0.90;;;12.00;83.60;;;;;;5101776;28;20063;-73
2022/07/04 02:59:11;;;;;;;1.05;0.80;;;12.00;83.60;;;;;;5104497;28;20051;-71
2022/07/04 03:01:38;;;;;;;2.58;1.00;;;12.00;83.40;;;;;;5111382;28;20370;-72
2022/07/04 03:04:06;;;;;;;2.25;0.85;;;12.00;83.40;;;;;;5109507;28;20047;-72
2022/07/04 03:06:34;;;;;;;7.10;1.45;;;12.10;83.30;;;;;;5104680;28;20048;-72
2022/07/04 03:09:01;;;;;;;6.95;1.40;;;12.00;83.30;;;;;;5115321;28;20054;-71
2022/07/04 03:11:29;;;;;;;5.22;1.08;;;12.10;83.30;;;;;;5104040;28;20047;-71
2022/07/04 03:13:56;;;;;;;1.30;0.90;;;12.10;83.30;;;;;;5091342;28;20056;-71
2022/07/04 03:16:24;;;;;;;3.30;1.23;;;12.10;83.20;;;;;;5102469;28;20051;-71
2022/07/04 03:18:52;;;;;;;2.72;1.00;;;12.20;83.20;;;;;;5084307;28;20055;-71
2022/07/04 03:21:19;;;;;;;4.45;1.15;;;12.20;83.20;;;;;;5088453;28;20065;-71
2022/07/04 03:23:57;;;;;;;4.80;1.20;;;12.20;83.10;;;;;;5109737;28;20059;-72
2022/07/04 03:26:30;;;;;;;7.20;1.80;;;12.20;83.20;;;;;;5099296;28;20516;-72
2022/07/04 03:28:59;;;;;;;2.85;0.95;;;12.30;83.20;;;;;;5110748;28;20036;-72
2022/07/04 03:31:28;;;;;;;2.08;1.00;;;12.30;83.10;;;;;;5102170;28;20396;-72
2022/07/04 03:33:56;;;;;;;4.40;1.20;;;12.30;83.10;;;;;;5092763;28;20049;-71
2022/07/04 03:36:23;;;;;;;3.58;1.40;;;12.40;83.20;;;;;;5098687;28;20412;-72
2022/07/04 03:38:51;;;;;;;5.60;1.65;;;12.40;83.10;;;;;;5099079;28;20058;-72
2022/07/04 03:41:19;;;;;;;4.57;1.30;;;12.50;83.00;;;;;;5100045;28;20047;-72
2022/07/04 03:43:46;;;;;;;4.88;1.30;;;12.50;83.00;;;;;;5106348;28;20482;-72
2022/07/04 03:46:14;;;;;;;4.88;1.13;;;12.50;82.90;;;;;;5110211;28;20062;-72
2022/07/04 03:48:43;;;;;;;6.00;1.23;;;12.60;83.00;;;;;;5080597;28;20513;-72
2022/07/04 03:51:12;;;;;;;6.05;1.25;;;12.60;82.90;;;;;;5063645;28;20045;-72
2022/07/04 03:53:40;;;;;;;2.05;1.05;;;12.60;82.80;;;;;;5069196;28;20033;-72
2022/07/04 03:56:08;;;;;;;3.72;1.20;;;12.60;82.80;;;;;;5065440;28;20044;-72
2022/07/04 03:58:36;;;;;;;2.92;1.15;;;12.60;82.80;;;;;;5082919;28;20056;-72
2022/07/04 04:01:04;;;;;;;6.90;1.50;;;12.60;82.80;;;;;;5075278;28;20059;-72
2022/07/04 04:06:17;;;;;;;3.17;0.80;;;12.60;82.80;;;;;;5071489;28;20041;-72
2022/07/04 04:08:45;;;;;;;5.28;1.13;;;12.60;82.80;;;;;;5068961;28;20041;-72
2022/07/04 04:11:13;;;;;;;5.05;1.10;;;12.60;82.70;;;;;;5089248;28;20070;-72
2022/07/04 04:13:40;;;;;;;3.00;1.00;;;12.70;82.70;;;;;;5067954;28;20059;-72
2022/07/04 04:16:08;;;;;;;4.25;0.93;;;12.70;82.70;;;;;;5092527;28;20052;-72
2022/07/04 04:18:36;;;;;;;2.50;0.88;;;12.70;82.70;;;;;;5076711;28;20051;-72
2022/07/04 04:21:04;;;;;;;2.83;1.05;;;12.70;82.70;;;;;;5086184;28;20503;-72
2022/07/04 04:23:32;;;;;;;1.77;0.88;;;12.70;82.60;;;;;;5077763;28;20484;-72
2022/07/04 04:26:00;;;;;;;4.32;0.80;;;12.70;82.60;;;;;;5082741;28;20052;-72
2022/07/04 04:28:27;;;;;;;4.03;1.08;;;12.70;82.60;;;;;;5073712;28;20482;-72
2022/07/04 04:30:55;;;;;;;3.13;0.77;;;12.70;82.50;;;;;;5071425;28;20052;-72
2022/07/04 04:33:22;;;;;;;4.15;0.90;;;12.70;82.50;;;;;;5072131;28;20043;-71
2022/07/04 04:35:50;;;;;;;4.68;1.33;;;12.70;82.60;;;;;;5064700;28;20044;-72
2022/07/04 04:38:18;;;;;;;4.10;1.20;;;12.70;82.50;;;;;;5064949;28;20494;-72
2022/07/04 04:40:45;;;;;;;3.50;0.80;;;12.70;82.50;;;;;;5073503;28;20059;-72
2022/07/04 04:43:13;;;;;;;2.85;1.00;;;12.70;82.40;;;;;;5066820;28;21045;-72
2022/07/04 04:45:40;;;;;;;3.60;1.10;;;12.70;82.30;;;;;;5057779;28;20048;-72
2022/07/04 04:48:08;;;;;;;3.80;1.10;;;12.80;82.30;;;;;;5078256;28;20410;-72
2022/07/04 04:50:35;;;;;;;2.28;1.02;;;12.80;82.20;;;;;;5098016;28;20388;-72
2022/07/04 04:53:03;;;;;;;4.18;0.90;;;12.80;82.20;;;;;;5105761;28;20051;-72
2022/07/04 04:55:31;;;;;;;1.50;0.63;;;12.80;82.10;;;;;;5104337;28;20056;-73
2022/07/04 04:57:58;;;;;;;1.70;0.80;;;12.80;82.10;;;;;;5102451;28;20054;-72
2022/07/04 05:00:26;;;;;;;2.42;1.10;;;12.80;82.00;;;;;;5094294;28;20040;-72
2022/07/04 05:02:54;;;;;;;6.65;1.38;;;12.80;81.90;;;;;;5087121;28;20044;-72
2022/07/04 05:05:21;;;;;;;3.63;1.10;;;12.80;81.90;;;;;;5097277;28;20044;-72
2022/07/04 05:07:49;;;;;;;6.68;1.15;;;12.80;82.00;;;;;;5097812;28;20048;-72
2022/07/04 05:10:17;;;;;;;3.22;1.00;;;12.80;81.90;;;;;;5091857;28;20048;-72
2022/07/04 05:12:45;;;;;;;3.50;1.10;;;12.80;81.90;;;;;;5080876;28;20045;-72
2022/07/04 05:15:13;;;;;;;4.55;1.05;;;12.80;81.80;;;;;;5082107;28;20066;-72
2022/07/04 05:17:41;;;;;;;4.32;1.00;;;12.90;81.70;;;;;;5106202;28;20055;-72
2022/07/04 05:20:09;;;;;;;2.65;0.70;;;12.90;81.70;;;;;;5090659;28;20039;-72
2022/07/04 05:22:36;;;;;;;2.80;0.80;;;12.90;81.60;;;;;;5091269;28;20078;-72
2022/07/04 05:25:04;;;;;;;1.77;0.80;;;12.90;81.50;;;;;;5094436;28;20051;-72
2022/07/04 05:27:32;;;;;;;5.18;1.00;;;12.90;81.40;;;;;;5110980;28;20489;-72
2022/07/04 05:30:00;;;;;;;2.25;0.82;;;12.90;81.40;;;;;;5094086;28;20079;-72
2022/07/04 05:32:27;;;;;;;2.90;1.02;;;12.90;81.40;;;;;;5090535;28;20048;-72
2022/07/04 05:34:56;;;;;;;2.92;0.60;;;12.90;81.30;;;;;;5095919;28;20509;-72
2022/07/04 05:37:24;;;;;;;5.28;1.05;;;13.00;81.20;;;;;;5087108;28;20404;-72
2022/07/04 05:39:52;;;;;;;3.90;1.10;;;13.00;81.10;;;;;;5100311;28;20048;-74
2022/07/04 05:42:19;;;;;;;3.55;0.80;;;13.00;81.00;;;;;;5099857;28;20045;-72
2022/07/04 05:44:47;;;;;;;3.38;0.82;;;13.00;81.00;;;;;;5105615;28;20044;-73
2022/07/04 05:47:14;;;;;;;4.70;1.00;;;13.00;81.00;;;;;;5064857;28;20051;-72
2022/07/04 05:49:42;;;;;;;4.38;1.15;;;13.10;81.00;;;;;;5091754;28;20047;-73
2022/07/04 05:52:10;;;;;;;3.35;0.77;;;13.10;80.80;;;;;;5100347;28;20039;-72
2022/07/04 05:54:37;;;;;;;4.18;0.70;;;13.20;80.60;;;;;;5106500;28;20058;-72
2022/07/04 05:57:05;;;;;;;1.63;0.70;;;13.20;80.40;;;;;;5104299;28;20045;-73
2022/07/04 05:59:33;;;;;;;2.50;0.70;;;13.30;80.30;;;;;;5094244;28;20044;-73
2022/07/04 06:02:00;;;;;;;2.28;0.73;;;13.30;80.10;;;;;;5085162;28;20044;-72
2022/07/04 06:04:28;;;;;;;2.05;0.68;;;13.30;80.00;;;;;;5071555;28;20051;-72
2022/07/04 06:06:57;;;;;;;11.95;1.13;;;13.30;79.90;;;;;;5094027;28;20052;-73
2022/07/04 06:09:25;;;;;;;5.22;0.80;;;13.40;79.70;;;;;;5094542;28;20054;-72
2022/07/04 06:11:52;;;;;;;12.52;1.00;;;13.50;79.40;;;;;;5073828;28;20059;-72
2022/07/04 06:14:20;;;;;;;1.77;0.80;;;13.50;79.20;;;;;;5088531;28;20044;-72
2022/07/04 06:16:47;;;;;;;2.05;0.70;;;13.60;79.10;;;;;;5081385;28;20485;-72
2022/07/04 06:19:15;;;;;;;5.30;0.80;;;13.70;78.90;;;;;;5084977;28;20070;-72
2022/07/04 06:21:42;;;;;;;3.80;0.85;;;13.70;78.50;;;;;;5087384;28;20055;-72
2022/07/04 06:24:10;;;;;;;2.35;0.75;;;13.80;78.40;;;;;;5076555;28;20044;-72
2022/07/04 06:26:38;;;;;;;1.73;0.63;;;13.80;78.10;;;;;;5085215;28;20051;-73
2022/07/04 06:29:05;;;;;;;4.88;0.65;;;13.80;78.00;;;;;;5084738;28;20047;-73
2022/07/04 06:31:33;;;;;;;0.80;0.40;;;13.80;77.50;;;;;;5087308;28;20686;-72
2022/07/04 06:36:47;;;;;;;1.80;0.80;;;13.90;76.90;;;;;;5079671;28;20405;-72
2022/07/04 06:39:15;;;;;;;2.78;0.80;;;14.00;76.90;;;;;;5084946;28;20055;-73
2022/07/04 06:41:42;;;;;;;9.15;1.23;;;14.00;76.70;;;;;;5090831;28;20048;-73
2022/07/04 06:44:10;;;;;;;3.20;0.60;;;14.00;76.80;;;;;;5089774;28;20032;-73
2022/07/04 06:46:40;;;;;;;3.67;0.80;;;14.10;76.70;;;;;;5089153;28;20063;-73
2022/07/04 06:49:08;;;;;;;7.10;0.60;;;14.10;76.70;;;;;;5088525;28;20048;-73
2022/07/04 06:51:36;;;;;;;9.18;1.02;;;14.00;76.70;;;;;;5093623;28;20040;-73
2022/07/04 06:54:04;;;;;;;9.55;2.35;;;14.10;76.80;;;;;;5079433;28;20059;-73
2022/07/04 06:56:31;;;;;;;4.97;0.73;;;14.00;76.90;;;;;;5082841;28;20413;-73
2022/07/04 06:58:59;;;;;;;2.33;0.80;;;14.00;76.90;;;;;;5098595;28;20058;-73
2022/07/04 07:01:27;;;;;;;1.60;1.13;;;14.00;76.90;;;;;;5100764;28;20055;-73
2022/07/04 07:03:55;;;;;;;6.05;1.00;;;13.90;77.00;;;;;;5095055;28;20040;-73
2022/07/04 07:06:23;;;;;;;15.73;1.45;;;13.90;77.20;;;;;;5096000;28;20066;-73
2022/07/04 07:08:51;;;;;;;10.98;1.10;;;13.80;77.30;;;;;;5090285;28;20631;-73
2022/07/04 07:11:19;;;;;;;5.25;0.80;;;13.90;77.40;;;;;;5089257;28;20048;-73
2022/07/04 07:13:50;;;;;;;6.03;1.00;;;13.90;77.50;;;;;;5088899;28;20385;-73
2022/07/04 07:16:19;;;;;;;7.15;1.02;;;13.90;77.50;;;;;;5089397;28;20044;-73
2022/07/04 07:18:49;;;;;;;5.32;0.80;;;14.00;77.20;;;;;;5077726;28;20052;-73
2022/07/04 07:21:17;;;;;;;10.50;1.27;;;14.10;77.10;;;;;;5087327;28;20125;-73
2022/07/04 07:23:44;;;;;;;11.13;1.00;;;14.20;76.80;;;;;;5100889;28;20059;-75
2022/07/04 07:26:13;;;;;;;8.02;0.80;;;14.20;76.70;;;;;;5091890;28;20497;-75
2022/07/04 07:28:40;;;;;;;6.57;0.60;;;14.30;76.40;;;;;;5093152;28;20043;-73
2022/07/04 07:31:08;;;;;;;5.00;0.55;;;14.30;76.10;;;;;;5091958;28;20055;-73
2022/07/04 07:33:36;;;;;;;7.60;0.80;;;14.40;75.70;;;;;;5090269;28;20036;-74
2022/07/04 07:36:04;;;;;;;3.05;0.60;;;14.40;75.40;;;;;;5077589;28;20055;-73
2022/07/04 07:38:32;;;;;;;20.55;1.10;;;14.50;75.20;;;;;;5089465;28;20040;-73
2022/07/04 07:40:59;;;;;;;4.65;0.60;;;14.50;74.80;;;;;;5101244;28;20051;-73
2022/07/04 07:43:27;;;;;;;6.60;0.73;;;14.50;73.80;;;;;;5085916;28;20058;-74
2022/07/04 07:45:56;;;;;;;3.22;0.40;;;14.60;73.50;;;;;;5095701;28;20055;-73
2022/07/04 07:48:24;;;;;;;1.05;0.47;;;14.60;73.30;;;;;;5099203;28;20382;-75
2022/07/04 07:50:51;;;;;;;0.93;0.57;;;14.60;72.90;;;;;;5087218;28;20051;-69
2022/07/04 07:53:19;;;;;;;4.18;0.30;;;14.60;72.90;;;;;;5093201;28;20039;-69
2022/07/04 07:55:47;;;;;;;2.15;0.30;;;14.60;72.90;;;;;;5094585;28;20071;-68
2022/07/04 07:58:14;;;;;;;7.15;0.55;;;14.60;72.00;;;;;;5072741;28;20060;-69
2022/07/04 08:00:42;;;;;;;9.15;0.60;;;14.60;72.10;;;;;;5075333;28;20055;-74
2022/07/04 08:06:11;;;;;;;2.65;0.45;;;14.70;72.00;;;;;;5092866;28;20497;-74
2022/07/04 08:08:43;;;;;;;2.53;0.32;;;14.70;71.40;;;;;;5067469;28;20052;-74
2022/07/04 08:11:12;;;;;;;15.95;1.15;;;14.70;71.00;;;;;;5086010;28;20044;-72
2022/07/04 08:13:40;;;;;;;5.18;0.47;;;14.60;71.30;;;;;;5087455;28;20043;-76
2022/07/04 08:16:09;;;;;;;0.88;0.30;;;14.60;71.20;;;;;;5090601;28;20059;-76
2022/07/04 08:18:36;;;;;;;3.13;0.50;;;14.60;70.90;;;;;;5080328;28;20048;-76
2022/07/04 08:21:05;;;;;;;3.42;0.40;;;14.70;70.60;;;;;;5077341;28;20036;-76
2022/07/04 08:23:40;;;;;;;4.93;0.50;;;14.70;70.30;;;;;;5092147;28;20048;-76
2022/07/04 08:26:28;;;;;;;2.85;0.45;;;14.70;70.50;;;;;;5087356;28;20060;-77
2022/07/04 08:28:57;;;;;;;1.63;0.43;;;14.80;70.60;;;;;;5115160;28;20053;-76
2022/07/04 08:31:27;;;;;;;4.47;0.45;;;15.00;70.10;;;;;;5090761;28;20049;-76
2022/07/04 08:34:15;;;;;;;13.80;1.00;;;15.20;70.20;;;;;;5086213;28;20129;-76
2022/07/04 08:36:43;;;;;;;10.32;0.80;;;15.50;70.30;;;;;;5076098;28;20536;-76
2022/07/04 08:39:11;;;;;;;0.60;0.40;;;15.90;69.40;;;;;;5115883;28;20043;-75
2022/07/04 08:41:40;;;;;;;3.72;0.45;;;16.30;68.30;;;;;;5101333;28;20481;-77
2022/07/04 08:44:12;;;;;;;1.60;0.30;;;16.70;67.30;;;;;;5088558;28;20500;-78
2022/07/04 08:46:41;;;;;;;6.53;0.43;;;17.00;65.50;;;;;;5081782;28;20052;-76
2022/07/04 08:49:22;;;;;;;4.60;0.75;;;17.30;64.30;;;;;;5092896;28;20044;-77
2022/07/04 08:52:03;;;;;;;3.75;0.20;;;17.50;63.20;;;;;;5092214;28;20063;-78
2022/07/04 09:00:07;;;;;;;1.67;0.40;;;17.80;60.20;;;;;;5096155;28;20040;-79
2022/07/04 09:02:37;;;;;;;3.00;0.30;;;17.80;59.50;;;;;;5077062;28;20191;-78
2022/07/04 09:05:07;;;;;;;2.13;0.32;;;17.80;59.50;;;;;;5094349;28;20051;-79
2022/07/04 09:07:35;;;;;;;3.25;0.57;;;17.70;59.70;;;;;;5094426;28;20067;-79
2022/07/04 09:10:03;;;;;;;9.40;0.40;;;17.80;60.30;;;;;;5093337;28;20056;-77
2022/07/04 09:12:31;;;;;;;4.53;0.60;;;17.80;59.60;;;;;;5094964;28;20051;-78
2022/07/04 09:15:19;;;;;;;3.63;0.70;;;17.80;59.30;;;;;;5094885;28;20051;-78
2022/07/04 09:17:47;;;;;;;1.80;0.20;;;17.80;59.70;;;;;;5094018;28;20040;-79
2022/07/04 09:20:20;;;;;;;0.95;0.20;;;17.80;58.60;;;;;;5093819;28;20044;-77
2022/07/04 09:22:50;;;;;;;3.38;0.35;;;17.70;57.60;;;;;;5094072;28;20056;-77
2022/07/04 09:25:19;;;;;;;2.55;0.28;;;17.70;58.30;;;;;;5075780;28;20055;-77
2022/07/04 09:27:49;;;;;;;0.73;0.30;;;17.60;58.40;;;;;;5093732;28;20044;-77
2022/07/04 09:30:18;;;;;;;1.83;0.30;;;17.40;58.70;;;;;;5093273;28;20391;-75
2022/07/04 09:32:50;;;;;;;4.57;0.40;;;17.30;58.90;;;;;;5092955;28;20059;-76
2022/07/04 09:35:21;;;;;;;8.20;0.68;;;17.20;59.30;;;;;;5093337;28;20048;-76
2022/07/04 09:37:57;;;;;;;2.97;0.20;;;17.30;59.10;;;;;;5093446;28;20373;-75
2022/07/04 09:40:26;;;;;;;0.20;0.17;;;17.30;58.50;;;;;;5093188;28;20047;-74
2022/07/04 09:42:55;;;;;;;2.33;0.40;;;17.20;57.40;;;;;;5074774;28;20047;-74
2022/07/04 09:45:26;;;;;;;2.10;0.47;;;17.20;58.20;;;;;;5092839;28;20044;-75
2022/07/04 09:47:58;;;;;;;0.38;0.28;;;17.30;59.20;;;;;;5093172;28;20047;-75
2022/07/04 09:50:28;;;;;;;3.83;0.30;;;17.40;59.60;;;;;;5093203;28;20481;-74
2022/07/04 09:53:01;;;;;;;1.13;0.47;;;17.60;58.90;;;;;;5093341;28;20055;-74
2022/07/04 09:55:35;;;;;;;1.02;0.20;;;17.70;57.30;;;;;;5093044;28;20048;-75
2022/07/04 09:58:10;;;;;;;1.25;0.30;;;17.70;57.40;;;;;;5093298;28;20040;-75
2022/07/04 10:00:43;;;;;;;0.82;0.50;;;17.70;57.90;;;;;;5074200;28;20063;-74
2022/07/04 10:03:22;;;;;;;6.80;0.50;;;17.80;58.50;;;;;;5093064;28;20048;-74
2022/07/04 10:06:11;;;;;;;16.92;1.05;;;17.90;58.50;;;;;;5092922;28;20040;-75
2022/07/04 10:08:40;;;;;;;14.48;0.75;;;18.10;56.90;;;;;;5091938;28;20060;-75
2022/07/04 10:11:09;;;;;;;4.30;0.52;;;18.20;56.30;;;;;;5092992;28;20520;-74
2022/07/04 10:13:46;;;;;;;2.67;0.25;;;18.30;56.30;;;;;;5073701;28;20051;-75
2022/07/04 10:16:16;;;;;;;2.92;0.52;;;18.20;56.10;;;;;;5092835;28;20052;-75
2022/07/04 10:18:45;;;;;;;11.55;0.57;;;17.90;56.90;;;;;;5093048;28;20043;-75
2022/07/04 10:21:14;;;;;;;19.60;0.75;;;17.80;56.70;;;;;;5074712;28;20048;-74
2022/07/04 10:23:43;;;;;;;5.78;0.70;;;17.80;56.50;;;;;;5092703;28;20067;-74
2022/07/04 10:26:11;;;;;;;3.40;0.30;;;18.00;55.10;;;;;;5092959;28;20052;-74
2022/07/04 10:28:40;;;;;;;4.65;0.20;;;18.30;54.20;;;;;;5092327;28;20067;-75
2022/07/04 10:31:14;;;;;;;21.42;0.73;;;18.50;52.30;;;;;;5091672;28;20051;-74
2022/07/04 10:33:43;;;;;;;1.50;0.28;;;18.60;52.40;;;;;;5074811;28;20066;-74
2022/07/04 10:36:22;;;;;;;9.50;0.35;;;18.80;51.60;;;;;;5090944;28;20056;-74
2022/07/04 10:38:59;;;;;;;1.52;0.20;;;19.00;50.50;;;;;;5073910;28;20397;-73
2022/07/04 10:41:28;;;;;;;1.95;0.35;;;18.80;50.20;;;;;;5092812;28;20126;-73
2022/07/04 10:44:05;;;;;;;0.90;0.20;;;19.00;50.70;;;;;;5092388;28;20044;-76
2022/07/04 10:46:42;;;;;;;0.52;0.32;;;19.10;49.20;;;;;;5091649;28;20051;-77
2022/07/04 10:49:15;;;;;;;4.22;0.35;;;19.10;49.70;;;;;;5092371;28;20048;-74
2022/07/04 10:51:48;;;;;;;0.80;0.32;;;19.10;49.80;;;;;;5092231;28;20496;-77
2022/07/04 10:54:31;;;;;;;0.75;0.20;;;19.20;49.70;;;;;;5092395;28;20040;-76
2022/07/04 10:57:16;;;;;;;0.98;0.10;;;19.40;49.50;;;;;;5092413;28;20055;-76
2022/07/04 11:00:03;;;;;;;7.57;0.40;;;19.50;49.10;;;;;;5092328;28;20051;-74
2022/07/04 11:02:32;;;;;;;6.32;0.30;;;19.40;47.90;;;;;;5074610;28;20040;-75
2022/07/04 11:05:10;;;;;;;1.75;0.20;;;19.20;47.50;;;;;;5091258;28;20059;-76
2022/07/04 11:07:41;;;;;;;3.05;0.35;;;18.80;48.30;;;;;;5073459;28;20060;-74
2022/07/04 11:10:16;;;;;;;12.65;0.55;;;18.70;49.50;;;;;;5092165;28;20052;-74
2022/07/04 11:12:56;;;;;;;11.07;0.57;;;18.70;49.40;;;;;;5094188;28;20060;-74
2022/07/04 11:15:25;;;;;;;5.75;0.50;;;18.80;49.40;;;;;;5078047;28;20051;-74
2022/07/04 11:17:55;;;;;;;3.05;0.73;;;18.70;49.70;;;;;;5077197;28;20055;-78
2022/07/04 11:20:24;;;;;;;0.73;0.30;;;18.80;50.40;;;;;;5095261;28;20055;-72
2022/07/04 11:22:51;;;;;;;1.67;0.20;;;19.10;50.30;;;;;;5095050;28;20075;-73
2022/07/04 11:25:19;;;;;;;1.23;0.30;;;19.50;49.00;;;;;;5095915;28;20040;-76
2022/07/04 11:27:47;;;;;;;2.75;0.22;;;19.60;48.90;;;;;;5095466;28;20048;-72
2022/07/04 11:30:14;;;;;;;1.95;0.28;;;19.40;48.80;;;;;;5077834;28;20036;-71
2022/07/04 11:32:43;;;;;;;0.75;0.28;;;19.20;49.00;;;;;;5095836;28;20052;-74
2022/07/04 11:35:10;;;;;;;1.48;0.40;;;19.00;48.70;;;;;;5094694;28;20059;-75
2022/07/04 11:37:38;;;;;;;4.43;0.20;;;19.00;49.70;;;;;;5095805;28;20044;-71
2022/07/04 11:45:54;;;;;;;0.75;0.28;;;19.30;49.80;;;;;;5094596;28;20052;-75
2022/07/04 11:48:22;;;;;;;1.00;0.30;;;19.30;48.90;;;;;;5095522;28;20060;-70
2022/07/04 11:50:50;;;;;;;1.65;0.65;;;19.30;49.20;;;;;;5095080;28;20052;-75
2022/07/04 11:53:18;;;;;;;2.50;0.40;;;19.30;50.00;;;;;;5095633;28;20040;-74
2022/07/04 11:55:55;;;;;;;3.30;0.40;;;19.30;50.00;;;;;;5095518;28;20044;-75
2022/07/04 11:58:23;;;;;;;1.13;0.43;;;19.20;49.90;;;;;;5076112;28;20040;-74
2022/07/04 12:00:52;;;;;;;1.77;0.30;;;19.10;50.30;;;;;;5093225;28;20058;-74
2022/07/04 12:03:19;;;;;;;1.08;0.30;;;19.20;50.40;;;;;;5093828;28;20059;-75
2022/07/04 12:06:00;;;;;;;0.60;0.20;;;19.50;50.10;;;;;;5077294;28;20048;-73
2022/07/04 12:08:28;;;;;;;1.88;0.57;;;19.80;49.10;;;;;;5075360;28;20043;-75
2022/07/04 12:10:56;;;;;;;1.75;0.40;;;20.00;47.80;;;;;;5074982;28;20049;-75
2022/07/04 12:13:24;;;;;;;5.32;0.40;;;20.00;47.10;;;;;;5074111;28;20067;-75
2022/07/04 12:15:52;;;;;;;2.67;0.30;;;19.90;47.60;;;;;;5074928;28;20048;-75
2022/07/04 12:18:23;;;;;;;1.70;0.50;;;19.90;48.30;;;;;;5074890;28;20056;-75
2022/07/04 12:20:53;;;;;;;2.60;0.52;;;20.10;48.30;;;;;;5056764;28;20330;-75
2022/07/04 12:23:22;;;;;;;5.13;0.55;;;20.30;48.10;;;;;;5055432;28;20429;-75
2022/07/04 12:25:51;;;;;;;3.63;0.55;;;20.20;47.00;;;;;;5074749;28;20048;-74
2022/07/04 12:28:22;;;;;;;2.17;0.30;;;20.00;47.60;;;;;;5074249;28;20048;-75
2022/07/04 12:30:56;;;;;;;5.55;0.50;;;20.00;47.80;;;;;;5074071;28;20063;-75
2022/07/04 12:33:26;;;;;;;1.30;0.40;;;20.10;47.90;;;;;;5059007;28;20048;-75
2022/07/04 12:36:02;;;;;;;2.20;0.35;;;20.50;47.20;;;;;;5093428;28;20048;-75
2022/07/04 12:38:29;;;;;;;2.08;0.30;;;20.70;46.70;;;;;;5094364;28;20055;-75
2022/07/04 12:41:02;;;;;;;1.85;0.20;;;20.80;45.80;;;;;;5094620;28;20040;-75
2022/07/04 12:43:40;;;;;;;0.73;0.40;;;20.70;46.50;;;;;;5074282;28;20056;-75
2022/07/04 12:46:24;;;;;;;3.35;0.45;;;20.60;47.10;;;;;;5092335;28;20047;-74
2022/07/04 12:48:53;;;;;;;7.80;0.82;;;20.50;47.40;;;;;;5093732;28;20062;-74
2022/07/04 12:51:26;;;;;;;3.50;0.70;;;20.20;48.20;;;;;;5094311;28;20332;-74
2022/07/04 12:53:55;;;;;;;;;;;19.90;48.80;;;;;;5094030;28;20044;-74
2022/07/04 12:56:31;;;;;;;4.30;0.50;;;19.70;49.30;;;;;;5093987;28;19932;-74
2022/07/04 12:59:02;;;;;;;2.28;0.63;;;19.60;50.20;;;;;;5093913;28;20508;-74
2022/07/04 13:01:30;;;;;;;2.25;0.52;;;19.60;50.60;;;;;;5093364;28;20059;-73
2022/07/04 13:03:58;;;;;;;3.22;0.70;;;19.70;50.80;;;;;;5093980;28;20059;-80
2022/07/04 13:06:27;;;;;;;6.57;0.70;;;19.80;50.90;;;;;;5094002;28;20040;-83
2022/07/04 13:08:56;;;;;;;3.72;0.60;;;20.40;50.50;;;;;;5076003;28;20390;-78
2022/07/04 13:14:10;;;;;;;1.55;0.40;;;21.30;46.30;;;;;;5094088;28;20048;-78
2022/07/04 13:16:38;;;;;;;2.45;0.40;;;21.30;45.40;;;;;;5093008;28;20048;-75
2022/07/04 13:19:07;;;;;;;2.13;0.30;;;21.50;45.00;;;;;;5093918;28;20068;-75
2022/07/04 13:21:36;;;;;;;5.07;0.68;;;21.70;45.30;;;;;;5094311;28;20040;-75
2022/07/04 13:24:05;;;;;;;0.65;0.25;;;21.80;44.70;;;;;;5092712;28;20036;-75